createdAt,value
2018-09-23T00:01:55.532Z,100719.30
2018-09-23T00:04:23.562Z,100717.19
2018-09-23T00:06:51.560Z,100714.84
2018-09-23T00:09:19.588Z,100724.19
2018-09-23T00:11:47.682Z,100714.81
2018-09-23T00:14:16.545Z,100718.27
2018-09-23T00:16:44.772Z,100723.17
2018-09-23T00:19:12.810Z,100724.19
2018-09-23T00:21:40.833Z,100715.36
2018-09-23T00:24:08.861Z,100706.83
2018-09-23T00:26:36.872Z,100704.01
2018-09-23T00:29:04.938Z,100691.73
2018-09-23T00:31:32.989Z,100694.37
2018-09-23T00:34:01.132Z,100700.66
2018-09-23T00:36:29.232Z,100706.39
2018-09-23T00:38:57.393Z,100696.42
2018-09-23T00:41:25.425Z,100701.58
2018-09-23T00:43:53.456Z,100702.42
2018-09-23T00:46:21.484Z,100697.21
2018-09-23T00:48:49.516Z,100692.17
2018-09-23T00:51:17.592Z,100692.04
2018-09-23T00:53:45.609Z,100690.19
2018-09-23T00:56:13.660Z,100685.95
2018-09-23T00:58:41.653Z,100678.58
2018-09-23T01:01:09.713Z,100673.31
2018-09-23T01:03:37.744Z,100672.84
2018-09-23T01:06:05.820Z,100665.54
2018-09-23T01:08:33.852Z,100667.08
2018-09-23T01:11:01.850Z,100670.52
2018-09-23T01:13:29.892Z,100674.23
2018-09-23T01:15:57.959Z,100675.59
2018-09-23T01:18:25.976Z,100684.98
2018-09-23T01:20:53.986Z,100683.97
2018-09-23T01:23:22.009Z,100680.16
2018-09-23T01:25:51.096Z,100676.89
2018-09-23T01:28:19.100Z,100675.13
2018-09-23T01:30:47.140Z,100670.27
2018-09-23T01:33:15.129Z,100670.31
2018-09-23T01:35:43.334Z,100668.55
2018-09-23T01:38:11.424Z,100661.84
2018-09-23T01:40:39.461Z,100660.56
2018-09-23T01:43:07.477Z,100658.44
2018-09-23T01:45:35.501Z,100658.40
2018-09-23T01:48:03.504Z,100664.75
2018-09-23T01:50:31.521Z,100657.22
2018-09-23T01:52:59.569Z,100649.87
2018-09-23T01:55:27.599Z,100644.66
2018-09-23T01:57:55.585Z,100638.47
2018-09-23T02:00:23.606Z,100626.33
2018-09-23T02:02:51.620Z,100631.77
2018-09-23T02:05:19.629Z,100622.11
2018-09-23T02:07:47.688Z,100615.52
2018-09-23T02:10:15.744Z,100625.69
2018-09-23T02:12:43.812Z,100618.27
2018-09-23T02:15:12.020Z,100619.53
2018-09-23T02:17:40.009Z,100615.34
2018-09-23T02:20:08.017Z,100613.83
2018-09-23T02:22:36.046Z,100618.66
2018-09-23T02:25:04.089Z,100626.30
2018-09-23T02:27:32.129Z,100612.70
2018-09-23T02:30:00.169Z,100609.66
2018-09-23T02:32:28.212Z,100611.87
2018-09-23T02:34:56.193Z,100623.04
2018-09-23T02:37:24.282Z,100616.27
2018-09-23T02:39:52.285Z,100612.91
2018-09-23T02:42:20.309Z,100616.75
2018-09-23T02:44:48.432Z,100603.16
2018-09-23T02:47:16.448Z,100598.38
2018-09-23T02:49:44.503Z,100601.74
2018-09-23T02:52:12.604Z,100603.72
2018-09-23T02:54:40.617Z,100600.22
2018-09-23T02:57:08.606Z,100600.16
2018-09-23T02:59:36.593Z,100593.70
2018-09-23T03:02:04.636Z,100593.41
2018-09-23T03:04:32.636Z,100590.31
2018-09-23T03:07:01.096Z,100593.70
2018-09-23T03:09:29.019Z,100586.33
2018-09-23T03:11:57.053Z,100575.70
2018-09-23T03:14:25.025Z,100574.72
2018-09-23T03:16:53.065Z,100575.02
2018-09-23T03:19:21.072Z,100576.83
2018-09-23T03:21:49.086Z,100572.75
2018-09-23T03:24:17.116Z,100571.72
2018-09-23T03:26:45.117Z,100570.49
2018-09-23T03:29:13.120Z,100562.45
2018-09-23T03:31:41.120Z,100553.20
2018-09-23T03:34:09.105Z,100549.26
2018-09-23T03:36:37.149Z,100550.45
2018-09-23T03:39:06.605Z,100542.21
2018-09-23T03:41:34.768Z,100544.70
2018-09-23T03:44:02.812Z,100536.59
2018-09-23T03:46:30.812Z,100530.55
2018-09-23T03:48:59.126Z,100526.89
2018-09-23T03:51:27.229Z,100533.06
2018-09-23T03:53:55.285Z,100536.51
2018-09-23T03:56:23.351Z,100531.22
2018-09-23T03:58:51.329Z,100537.75
2018-09-23T04:01:19.335Z,100541.83
2018-09-23T04:03:47.385Z,100543.62
2018-09-23T04:06:15.489Z,100538.47
2018-09-23T04:08:43.544Z,100539.84
2018-09-23T04:11:11.558Z,100540.99
2018-09-23T04:13:39.593Z,100529.70
2018-09-23T04:16:07.596Z,100519.20
2018-09-23T04:18:35.636Z,100515.78
2018-09-23T04:21:03.942Z,100512.00
2018-09-23T04:23:31.989Z,100517.86
2018-09-23T04:25:59.988Z,100514.30
2018-09-23T04:28:27.999Z,100522.80
2018-09-23T04:30:56.016Z,100515.08
2018-09-23T04:33:24.028Z,100505.53
2018-09-23T04:35:52.045Z,100507.83
2018-09-23T04:38:20.073Z,100508.50
2018-09-23T04:40:48.175Z,100508.03
2018-09-23T04:43:16.218Z,100508.84
2018-09-23T04:45:44.237Z,100504.53
2018-09-23T04:48:12.273Z,100489.15
2018-09-23T04:50:40.477Z,100496.85
2018-09-23T04:53:08.482Z,100497.11
2018-09-23T04:55:36.481Z,100494.27
2018-09-23T04:58:04.528Z,100491.20
2018-09-23T05:00:32.508Z,100485.04
2018-09-23T05:03:00.516Z,100489.72
2018-09-23T05:05:28.506Z,100502.29
2018-09-23T05:07:56.543Z,100491.85
2018-09-23T05:10:24.574Z,100481.45
2018-09-23T05:12:52.613Z,100485.63
2018-09-23T05:15:20.616Z,100488.59
2018-09-23T05:17:48.636Z,100487.95
2018-09-23T05:20:16.664Z,100480.84
2018-09-23T05:22:44.676Z,100472.47
2018-09-23T05:25:12.697Z,100473.02
2018-09-23T05:27:40.724Z,100482.84
2018-09-23T05:30:08.730Z,100487.07
2018-09-23T05:32:36.837Z,100491.24
2018-09-23T05:35:04.837Z,100486.53
2018-09-23T05:37:32.849Z,100487.95
2018-09-23T05:40:00.870Z,100496.34
2018-09-23T05:42:28.902Z,100500.83
2018-09-23T05:44:56.901Z,100493.02
2018-09-23T05:47:24.897Z,100488.71
2018-09-23T05:49:52.965Z,100487.37
2018-09-23T05:52:21.020Z,100489.78
2018-09-23T05:54:49.032Z,100485.80
2018-09-23T05:57:17.060Z,100477.60
2018-09-23T05:59:45.082Z,100475.46
2018-09-23T06:02:13.325Z,100472.27
2018-09-23T06:04:41.415Z,100469.42
2018-09-23T06:07:09.457Z,100469.80
2018-09-23T06:09:37.461Z,100477.73
2018-09-23T06:12:05.537Z,100479.05
2018-09-23T06:14:33.569Z,100479.93
2018-09-23T06:17:01.571Z,100477.44
2018-09-23T06:19:29.593Z,100472.27
2018-09-23T06:21:57.596Z,100471.05
2018-09-23T06:24:25.683Z,100475.56
2018-09-23T06:26:53.680Z,100478.39
2018-09-23T06:29:21.676Z,100472.95
2018-09-23T06:31:49.668Z,100473.81
2018-09-23T06:34:17.704Z,100467.06
2018-09-23T06:36:45.805Z,100475.15
2018-09-23T06:39:13.825Z,100470.66
2018-09-23T06:41:41.821Z,100470.44
2018-09-23T06:44:09.937Z,100471.99
2018-09-23T06:46:37.925Z,100466.69
2018-09-23T06:49:06.035Z,100470.16
2018-09-23T06:51:34.060Z,100472.10
2018-09-23T06:54:02.136Z,100462.03
2018-09-23T06:56:30.153Z,100456.63
2018-09-23T06:58:58.243Z,100446.73
2018-09-23T07:01:26.329Z,100446.22
2018-09-23T07:03:54.340Z,100446.34
2018-09-23T07:06:23.413Z,100455.69
2018-09-23T07:08:51.440Z,100463.91
2018-09-23T07:11:19.469Z,100468.44
2018-09-23T07:13:47.454Z,100464.19
2018-09-23T07:16:15.504Z,100449.59
2018-09-23T07:18:43.561Z,100453.09
2018-09-23T07:21:11.572Z,100449.59
2018-09-23T07:23:39.653Z,100459.70
2018-09-23T07:26:07.662Z,100460.32
2018-09-23T07:28:35.738Z,100461.66
2018-09-23T07:31:03.763Z,100449.12
2018-09-23T07:33:31.932Z,100453.38
2018-09-23T07:36:00.025Z,100456.26
2018-09-23T07:38:28.137Z,100459.80
2018-09-23T07:40:56.180Z,100453.81
2018-09-23T07:43:24.188Z,100437.94
2018-09-23T07:45:52.248Z,100449.72
2018-09-23T07:48:20.249Z,100444.42
2018-09-23T07:50:48.356Z,100429.82
2018-09-23T07:53:16.364Z,100424.86
2018-09-23T07:55:44.700Z,100427.67
2018-09-23T07:58:12.721Z,100433.99
2018-09-23T08:00:40.706Z,100438.44
2018-09-23T08:03:08.705Z,100438.09
2018-09-23T08:05:36.726Z,100437.28
2018-09-23T08:08:04.807Z,100433.75
2018-09-23T08:10:32.822Z,100422.70
2018-09-23T08:13:01.095Z,100425.33
2018-09-23T08:15:28.912Z,100410.67
2018-09-23T08:17:56.913Z,100424.08
2018-09-23T08:20:25.057Z,100428.24
2018-09-23T08:22:53.135Z,100419.05
2018-09-23T08:25:21.182Z,100423.89
2018-09-23T08:27:49.230Z,100430.97
2018-09-23T08:30:17.348Z,100424.35
2018-09-23T08:32:45.465Z,100431.05
2018-09-23T08:35:13.525Z,100428.41
2018-09-23T08:37:41.570Z,100415.53
2018-09-23T08:40:09.635Z,100412.47
2018-09-23T08:42:37.876Z,100417.92
2018-09-23T08:45:06.075Z,100407.34
2018-09-23T08:47:34.184Z,100412.45
2018-09-23T08:50:02.209Z,100405.88
2018-09-23T08:52:30.262Z,100398.88
2018-09-23T08:54:58.291Z,100386.96
2018-09-23T08:57:26.368Z,100382.30
2018-09-23T08:59:54.429Z,100375.54
2018-09-23T09:02:22.478Z,100374.91
2018-09-23T09:04:50.542Z,100377.51
2018-09-23T09:07:18.610Z,100369.61
2018-09-23T09:09:46.660Z,100369.09
2018-09-23T09:12:14.686Z,100363.33
2018-09-23T09:14:42.688Z,100354.74
2018-09-23T09:17:10.694Z,100346.20
2018-09-23T09:19:38.697Z,100334.02
2018-09-23T09:22:06.772Z,100333.33
2018-09-23T09:24:34.973Z,100326.14
2018-09-23T09:27:03.027Z,100311.85
2018-09-23T09:29:30.997Z,100306.85
2018-09-23T09:31:59.029Z,100308.20
2018-09-23T09:34:27.020Z,100301.37
2018-09-23T09:36:55.149Z,100294.72
2018-09-23T09:39:23.227Z,100301.27
2018-09-23T09:41:51.237Z,100307.69
2018-09-23T09:44:19.236Z,100312.78
2018-09-23T09:46:47.301Z,100311.11
2018-09-23T09:49:15.426Z,100320.99
2018-09-23T09:51:43.473Z,100322.41
2018-09-23T09:54:12.548Z,100319.99
2018-09-23T09:56:40.673Z,100306.93
2018-09-23T09:59:08.709Z,100301.57
2018-09-23T10:01:36.743Z,100299.02
2018-09-23T10:04:04.812Z,100290.28
2018-09-23T10:06:32.914Z,100289.28
2018-09-23T10:09:00.944Z,100278.20
2018-09-23T10:11:29.027Z,100271.69
2018-09-23T10:13:56.985Z,100270.14
2018-09-23T10:16:25.024Z,100291.10
2018-09-23T10:18:53.072Z,100292.70
2018-09-23T10:21:21.117Z,100279.77
2018-09-23T10:23:49.112Z,100290.66
2018-09-23T10:26:17.125Z,100296.41
2018-09-23T10:28:45.165Z,100305.23
2018-09-23T10:31:13.260Z,100313.81
2018-09-23T10:33:41.412Z,100322.52
2018-09-23T10:36:09.497Z,100293.12
2018-09-23T10:38:37.433Z,100299.57
2018-09-23T10:41:05.445Z,100309.60
2018-09-23T10:43:33.477Z,100294.03
2018-09-23T10:46:01.497Z,100291.42
2018-09-23T10:48:29.693Z,100298.57
2018-09-23T10:50:57.757Z,100267.10
2018-09-23T10:53:25.825Z,100282.41
2018-09-23T10:55:53.881Z,100271.61
2018-09-23T10:58:21.919Z,100265.01
2018-09-23T11:00:49.989Z,100275.60
2018-09-23T11:03:18.050Z,100253.92
2018-09-23T11:05:46.098Z,100248.89
2018-09-23T11:08:14.139Z,100250.81
2018-09-23T11:10:42.153Z,100243.34
2018-09-23T11:13:10.316Z,100243.90
2018-09-23T11:15:38.393Z,100245.67
2018-09-23T11:18:06.679Z,100223.29
2018-09-23T11:20:34.701Z,100192.17
2018-09-23T11:23:02.772Z,100201.72
2018-09-23T11:25:30.788Z,100207.56
2018-09-23T11:27:58.817Z,100222.52
2018-09-23T11:30:26.845Z,100230.14
2018-09-23T11:32:54.880Z,100223.57
2018-09-23T11:35:22.895Z,100233.32
2018-09-23T11:37:50.967Z,100234.20
2018-09-23T11:40:19.193Z,100223.13
2018-09-23T11:42:47.240Z,100214.36
2018-09-23T11:45:15.630Z,100202.83
2018-09-23T11:47:43.673Z,100190.48
2018-09-23T11:50:11.705Z,100193.86
2018-09-23T11:52:39.815Z,100192.87
2018-09-23T11:55:07.973Z,100207.28
2018-09-23T11:57:36.009Z,100213.08
2018-09-23T12:00:04.714Z,100209.30
2018-09-23T12:02:32.753Z,100206.66
2018-09-23T12:05:00.771Z,100200.63
2018-09-23T12:07:28.773Z,100209.86
2018-09-23T12:09:56.769Z,100227.42
2018-09-23T12:12:24.797Z,100235.08
2018-09-23T12:14:52.860Z,100228.86
2018-09-23T12:17:20.903Z,100197.27
2018-09-23T12:19:48.892Z,100159.77
2018-09-23T12:22:16.917Z,100144.07
2018-09-23T12:24:44.981Z,100143.50
2018-09-23T12:27:12.975Z,100131.81
2018-09-23T12:29:41.079Z,100116.11
2018-09-23T12:32:10.020Z,100111.59
2018-09-23T12:34:38.204Z,100112.09
2018-09-23T12:37:06.533Z,100120.44
2018-09-23T12:39:34.565Z,100136.02
2018-09-23T12:42:03.159Z,100151.03
2018-09-23T12:44:31.208Z,100154.25
2018-09-23T12:46:59.292Z,100146.69
2018-09-23T12:49:28.190Z,100125.91
2018-09-23T12:51:56.408Z,100090.45
2018-09-23T12:54:24.758Z,100072.02
2018-09-23T12:56:52.748Z,100068.38
2018-09-23T12:59:20.990Z,100087.53
2018-09-23T13:01:49.002Z,100081.69
2018-09-23T13:04:17.044Z,100088.86
2018-09-23T13:06:45.096Z,100112.48
2018-09-23T13:09:13.209Z,100076.17
2018-09-23T13:11:41.318Z,100058.96
2018-09-23T13:14:09.621Z,100064.06
2018-09-23T13:16:37.667Z,100038.55
2018-09-23T13:19:05.920Z,100016.28
2018-09-23T13:21:34.939Z,100014.37
2018-09-23T13:24:02.942Z,100001.22
2018-09-23T13:26:30.973Z,100019.94
2018-09-23T13:28:59.161Z,100048.31
2018-09-23T13:31:27.156Z,100106.39
2018-09-23T13:33:55.201Z,100089.84
2018-09-23T13:36:23.225Z,100020.45
2018-09-23T13:38:51.269Z,100038.68
2018-09-23T13:41:19.266Z,100057.63
2018-09-23T13:43:47.268Z,100070.80
2018-09-23T13:46:15.300Z,100068.98
2018-09-23T13:48:43.304Z,100060.46
2018-09-23T13:51:11.305Z,100053.03
2018-09-23T13:53:39.343Z,100065.77
2018-09-23T13:56:07.341Z,100054.50
2018-09-23T13:58:35.359Z,100040.33
2018-09-23T14:01:03.417Z,100039.41
2018-09-23T14:03:31.425Z,100045.26
2018-09-23T14:05:59.418Z,100019.33
2018-09-23T14:08:27.425Z,100023.57
2018-09-23T14:10:55.445Z,100020.61
2018-09-23T14:13:23.497Z,100042.59
2018-09-23T14:15:52.081Z,100036.11
2018-09-23T14:18:20.101Z,100043.70
2018-09-23T14:20:48.137Z,100043.92
2018-09-23T14:23:16.157Z,100055.59
2018-09-23T14:25:44.133Z,100047.17
2018-09-23T14:28:12.191Z,100036.13
2018-09-23T14:30:40.209Z,100053.59
2018-09-23T14:33:08.217Z,100068.92
2018-09-23T14:35:36.416Z,100078.29
2018-09-23T14:38:04.353Z,100067.76
2018-09-23T14:40:32.376Z,100055.41
2018-09-23T14:43:00.418Z,100009.59
2018-09-23T14:45:28.502Z,99975.94
2018-09-23T14:47:56.501Z,100003.91
2018-09-23T14:50:24.541Z,100058.45
2018-09-23T14:52:52.564Z,100072.92
2018-09-23T14:55:20.581Z,100097.95
2018-09-23T14:57:48.618Z,100083.88
2018-09-23T15:00:16.650Z,100059.20
2018-09-23T15:02:44.690Z,100069.38
2018-09-23T15:05:12.750Z,100091.40
2018-09-23T15:07:40.899Z,100084.48
2018-09-23T15:10:08.937Z,100063.67
2018-09-23T15:12:36.984Z,100052.12
2018-09-23T15:15:05.197Z,100062.24
2018-09-23T15:17:33.346Z,100087.98
2018-09-23T15:20:01.349Z,100095.05
2018-09-23T15:22:29.465Z,100089.95
2018-09-23T15:24:57.468Z,100088.70
2018-09-23T15:27:25.495Z,100093.52
2018-09-23T15:29:53.553Z,100097.84
2018-09-23T15:32:21.646Z,100101.47
2018-09-23T15:34:49.657Z,100094.01
2018-09-23T15:37:18.221Z,100098.22
2018-09-23T15:39:46.285Z,100102.67
2018-09-23T15:42:14.364Z,100103.34
2018-09-23T15:44:42.364Z,100099.53
2018-09-23T15:47:10.404Z,100113.25
2018-09-23T15:49:38.417Z,100108.95
2018-09-23T15:52:06.604Z,100105.80
2018-09-23T15:54:34.596Z,100100.41
2018-09-23T15:57:02.599Z,100098.31
2018-09-23T15:59:30.625Z,100116.98
2018-09-23T16:01:58.643Z,100120.80
2018-09-23T16:04:26.834Z,100124.33
2018-09-23T16:06:54.783Z,100130.95
2018-09-23T16:09:22.800Z,100137.08
2018-09-23T16:11:51.096Z,100123.20
2018-09-23T16:14:19.125Z,100121.63
2018-09-23T16:16:47.148Z,100121.70
2018-09-23T16:19:15.178Z,100128.57
2018-09-23T16:21:43.133Z,100135.06
2018-09-23T16:24:11.227Z,100137.91
2018-09-23T16:26:39.213Z,100148.38
2018-09-23T16:29:07.432Z,100158.95
2018-09-23T16:31:35.437Z,100163.04
2018-09-23T16:34:03.439Z,100156.11
2018-09-23T16:36:31.432Z,100160.36
2018-09-23T16:38:59.559Z,100161.13
2018-09-23T16:41:27.548Z,100161.69
2018-09-23T16:43:55.564Z,100161.53
2018-09-23T16:46:23.602Z,100168.64
2018-09-23T16:48:51.608Z,100177.42
2018-09-23T16:51:19.637Z,100180.34
2018-09-23T16:53:47.887Z,100189.60
2018-09-23T16:56:16.030Z,100204.08
2018-09-23T16:58:44.030Z,100200.83
2018-09-23T17:01:12.073Z,100206.22
2018-09-23T17:03:40.072Z,100215.12
2018-09-23T17:06:08.104Z,100218.97
2018-09-23T17:08:36.184Z,100228.16
2018-09-23T17:11:04.221Z,100229.09
2018-09-23T17:13:32.225Z,100238.41
2018-09-23T17:16:00.224Z,100241.86
2018-09-23T17:18:28.256Z,100242.28
2018-09-23T17:20:56.265Z,100250.34
2018-09-23T17:23:24.285Z,100257.08
2018-09-23T17:25:52.310Z,100255.98
2018-09-23T17:28:20.341Z,100250.66
2018-09-23T17:30:48.345Z,100252.14
2018-09-23T17:33:16.376Z,100249.03
2018-09-23T17:35:44.446Z,100241.05
2018-09-23T17:38:12.604Z,100243.69
2018-09-23T17:40:40.645Z,100250.33
2018-09-23T17:43:08.717Z,100264.89
2018-09-23T17:45:36.772Z,100276.50
2018-09-23T17:48:04.968Z,100294.21
2018-09-23T17:50:33.194Z,100298.86
2018-09-23T17:53:01.263Z,100314.19
2018-09-23T17:55:29.367Z,100320.17
2018-09-23T17:57:57.584Z,100320.05
2018-09-23T18:00:25.572Z,100321.34
2018-09-23T18:02:53.600Z,100319.53
2018-09-23T18:05:21.608Z,100320.88
2018-09-23T18:07:49.634Z,100331.95
2018-09-23T18:10:17.853Z,100338.08
2018-09-23T18:12:46.122Z,100352.14
2018-09-23T18:15:14.212Z,100347.91
2018-09-23T18:17:42.221Z,100349.40
2018-09-23T18:20:10.258Z,100354.12
2018-09-23T18:22:38.434Z,100360.20
2018-09-23T18:25:06.435Z,100365.22
2018-09-23T18:27:35.543Z,100367.17
2018-09-23T18:30:04.524Z,100368.02
2018-09-23T18:32:32.653Z,100369.03
2018-09-23T18:35:00.687Z,100374.80
2018-09-23T18:37:28.807Z,100379.03
2018-09-23T18:39:56.701Z,100389.70
2018-09-23T18:42:24.748Z,100401.44
2018-09-23T18:44:52.777Z,100413.02
2018-09-23T18:47:20.785Z,100424.55
2018-09-23T18:49:48.810Z,100419.27
2018-09-23T18:52:16.945Z,100425.88
2018-09-23T18:54:50.317Z,100432.36
2018-09-23T18:57:18.341Z,100445.05
2018-09-23T18:59:46.380Z,100460.84
2018-09-23T19:02:14.421Z,100468.93
2018-09-23T19:04:42.589Z,100478.13
2018-09-23T19:07:10.643Z,100489.30
2018-09-23T19:09:38.629Z,100501.63
2018-09-23T19:12:06.640Z,100506.83
2018-09-23T19:14:34.749Z,100494.22
2018-09-23T19:17:02.805Z,100495.55
2018-09-23T19:19:36.400Z,100505.22
2018-09-23T19:22:07.463Z,100505.50
2018-09-23T19:24:35.496Z,100511.14
2018-09-23T19:27:03.520Z,100515.09
2018-09-23T19:29:31.509Z,100505.51
2018-09-23T19:31:59.536Z,100516.06
2018-09-23T19:34:27.549Z,100538.50
2018-09-23T19:36:55.604Z,100545.47
2018-09-23T19:39:23.633Z,100543.89
2018-09-23T19:41:51.677Z,100544.53
2018-09-23T19:44:19.672Z,100552.64
2018-09-23T19:46:47.724Z,100556.81
2018-09-23T19:49:15.802Z,100573.50
2018-09-23T19:51:43.745Z,100573.97
2018-09-23T19:54:11.809Z,100581.70
2018-09-23T19:56:39.988Z,100581.06
2018-09-23T19:59:08.004Z,100583.98
2018-09-23T20:01:36.065Z,100587.75
2018-09-23T20:04:04.191Z,100588.67
2018-09-23T20:06:32.217Z,100593.59
2018-09-23T20:09:00.240Z,100611.88
2018-09-23T20:11:28.288Z,100623.77
2018-09-23T20:13:56.339Z,100626.95
2018-09-23T20:16:24.364Z,100636.69
2018-09-23T20:18:52.445Z,100639.64
2018-09-23T20:21:20.454Z,100636.97
2018-09-23T20:23:48.444Z,100638.41
2018-09-23T20:26:16.553Z,100655.73
2018-09-23T20:28:44.626Z,100658.44
2018-09-23T20:31:12.667Z,100660.25
2018-09-23T20:33:40.701Z,100676.34
2018-09-23T20:36:08.723Z,100683.53
2018-09-23T20:38:36.904Z,100687.40
2018-09-23T20:41:04.892Z,100689.06
2018-09-23T20:43:32.926Z,100690.86
2018-09-23T20:46:00.961Z,100693.31
2018-09-23T20:48:28.988Z,100691.84
2018-09-23T20:50:56.980Z,100702.13
2018-09-23T20:53:25.029Z,100711.23
2018-09-23T20:55:53.047Z,100715.36
2018-09-23T20:58:21.109Z,100727.55
2018-09-23T21:00:49.164Z,100737.91
2018-09-23T21:03:17.171Z,100742.53
2018-09-23T21:05:45.335Z,100749.95
2018-09-23T21:08:13.408Z,100756.60
2018-09-23T21:10:41.410Z,100761.70
2018-09-23T21:13:09.837Z,100767.34
2018-09-23T21:15:37.885Z,100769.26
2018-09-23T21:18:05.956Z,100778.69
2018-09-23T21:20:33.973Z,100789.84
2018-09-23T21:23:02.016Z,100795.31
2018-09-23T21:25:30.163Z,100791.75
2018-09-23T21:27:58.257Z,100792.28
2018-09-23T21:30:26.277Z,100799.61
2018-09-23T21:32:54.345Z,100796.16
2018-09-23T21:35:22.396Z,100793.41
2018-09-23T21:37:50.725Z,100794.99
2018-09-23T21:40:18.753Z,100797.91
2018-09-23T21:42:46.745Z,100792.33
2018-09-23T21:45:15.837Z,100797.57
2018-09-23T21:47:43.850Z,100803.70
2018-09-23T21:50:12.165Z,100809.82
2018-09-23T21:52:40.216Z,100814.95
2018-09-23T21:55:08.435Z,100818.14
2018-09-23T21:57:36.478Z,100832.49
2018-09-23T22:00:06.650Z,100837.99
2018-09-23T22:02:34.653Z,100844.38
2018-09-23T22:05:02.857Z,100851.78
2018-09-23T22:07:30.951Z,100869.28
2018-09-23T22:09:58.986Z,100871.07
2018-09-23T22:12:27.049Z,100872.30
2018-09-23T22:14:55.073Z,100855.69
2018-09-23T22:17:23.112Z,100866.66
2018-09-23T22:19:51.340Z,100873.74
2018-09-23T22:22:19.357Z,100887.41
2018-09-23T22:24:47.416Z,100879.69
2018-09-23T22:27:15.456Z,100882.67
2018-09-23T22:29:43.476Z,100892.03
2018-09-23T22:32:11.516Z,100899.16
2018-09-23T22:34:39.537Z,100911.70
2018-09-23T22:37:07.552Z,100913.02
2018-09-23T22:39:35.594Z,100917.77
2018-09-23T22:42:03.655Z,100929.33
2018-09-23T22:44:31.628Z,100934.13
2018-09-23T22:46:59.668Z,100941.44
2018-09-23T22:49:27.809Z,100930.69
2018-09-23T22:51:56.889Z,100938.02
2018-09-23T22:54:24.912Z,100947.50
2018-09-23T22:56:52.926Z,100944.72
2018-09-23T22:59:20.934Z,100949.53
2018-09-23T23:01:48.968Z,100948.45
2018-09-23T23:04:16.984Z,100944.11
2018-09-23T23:06:45.025Z,100956.92
2018-09-23T23:09:12.997Z,100974.55
2018-09-23T23:11:41.001Z,100993.94
2018-09-23T23:14:09.289Z,101002.20
2018-09-23T23:16:37.297Z,101004.25
2018-09-23T23:19:05.349Z,100999.52
2018-09-23T23:21:33.408Z,100983.59
2018-09-23T23:24:01.421Z,100987.16
2018-09-23T23:26:29.444Z,100979.77
2018-09-23T23:28:57.515Z,100989.48
2018-09-23T23:31:25.532Z,100995.60
2018-09-23T23:33:53.506Z,101002.72
2018-09-23T23:36:21.493Z,101003.33
2018-09-23T23:38:49.525Z,101003.49
2018-09-23T23:41:17.559Z,101011.97
2018-09-23T23:43:45.588Z,101019.52
2018-09-23T23:46:13.576Z,101027.27
2018-09-23T23:48:41.601Z,101040.59
2018-09-23T23:51:09.573Z,101055.88
2018-09-23T23:53:37.637Z,101057.72
2018-09-23T23:56:05.713Z,101058.05
2018-09-23T23:58:33.697Z,101051.29
